createdAt,value
2022-11-23T00:01:13.983Z,1003.63
2022-11-23T00:03:42.062Z,1536.37
2022-11-23T00:06:11.480Z,1347.73
2022-11-23T00:08:39.549Z,514.30
2022-11-23T00:11:08.011Z,321.00
2022-11-23T00:13:36.271Z,1999.73
2022-11-23T00:16:07.084Z,836.27
2022-11-23T00:18:35.286Z,610.43
2022-11-23T00:21:08.078Z,1009.47
2022-11-23T00:23:38.449Z,248.77
2022-11-23T00:26:07.353Z,1094.47
2022-11-23T00:28:38.789Z,735.10
2022-11-23T00:31:07.059Z,909.93
2022-11-23T00:33:35.298Z,997.63
2022-11-23T00:36:05.373Z,1053.13
2022-11-23T00:38:33.746Z,1689.53
2022-11-23T00:41:04.696Z,1999.90
2022-11-23T00:43:33.302Z,1066.90
2022-11-23T00:46:10.168Z,1999.90
2022-11-23T00:48:38.761Z,212.00
2022-11-23T00:51:08.668Z,1378.60
2022-11-23T00:53:37.281Z,311.70
2022-11-23T00:56:06.923Z,830.20
2022-11-23T00:58:37.434Z,1892.10
2022-11-23T01:01:07.871Z,404.47
2022-11-23T01:03:36.847Z,592.63
2022-11-23T01:06:07.034Z,1514.80
2022-11-23T01:08:35.097Z,1168.37
2022-11-23T01:11:04.697Z,1999.90
2022-11-23T01:13:34.532Z,1938.30
2022-11-23T01:16:02.635Z,1069.83
2022-11-23T01:18:30.721Z,866.80
2022-11-23T01:20:59.014Z,1040.87
2022-11-23T01:23:29.341Z,76.87
2022-11-23T01:25:57.496Z,1034.23
2022-11-23T01:28:25.822Z,538.27
2022-11-23T01:30:55.187Z,1210.97
2022-11-23T01:33:23.230Z,614.83
2022-11-23T01:35:51.226Z,223.20
2022-11-23T01:38:19.250Z,1028.67
2022-11-23T01:40:47.232Z,985.70
2022-11-23T01:43:16.884Z,567.43
2022-11-23T01:45:46.422Z,1154.73
2022-11-23T01:48:20.917Z,349.77
2022-11-23T01:50:52.722Z,1999.90
2022-11-23T01:53:21.721Z,467.43
2022-11-23T01:55:50.700Z,210.10
2022-11-23T01:58:21.917Z,658.40
2022-11-23T02:00:50.810Z,1330.37
2022-11-23T02:03:20.351Z,677.93
2022-11-23T02:05:52.171Z,294.73
2022-11-23T02:08:21.250Z,968.60
2022-11-23T02:10:49.415Z,607.17
2022-11-23T02:13:17.528Z,1405.40
2022-11-23T02:15:45.692Z,884.23
2022-11-23T02:18:17.902Z,225.80
2022-11-23T02:20:47.814Z,1972.03
2022-11-23T02:23:30.326Z,415.40
2022-11-23T02:26:03.562Z,916.13
2022-11-23T02:28:36.559Z,292.70
2022-11-23T02:31:05.010Z,1336.47
2022-11-23T02:33:33.166Z,655.07
2022-11-23T02:36:02.859Z,1799.57
2022-11-23T02:38:34.297Z,149.07
2022-11-23T02:41:03.672Z,293.60
2022-11-23T02:43:31.878Z,443.43
2022-11-23T02:46:03.133Z,388.30
2022-11-23T02:48:31.135Z,675.30
2022-11-23T02:50:59.164Z,382.37
2022-11-23T02:53:27.185Z,154.63
2022-11-23T02:55:55.223Z,550.93
2022-11-23T02:58:24.589Z,204.73
2022-11-23T03:00:52.653Z,356.03
2022-11-23T03:03:20.674Z,1004.90
2022-11-23T03:05:48.712Z,539.33
2022-11-23T03:08:16.730Z,716.93
2022-11-23T03:10:45.869Z,216.60
2022-11-23T03:13:13.983Z,607.33
2022-11-23T03:15:43.376Z,50.73
2022-11-23T03:18:11.381Z,1579.23
2022-11-23T03:20:39.404Z,1146.07
2022-11-23T03:23:07.390Z,455.10
2022-11-23T03:25:35.445Z,1212.83
2022-11-23T03:28:03.423Z,1999.90
2022-11-23T03:30:32.047Z,306.10
2022-11-23T03:33:01.398Z,183.43
2022-11-23T03:35:29.463Z,916.50
2022-11-23T03:37:57.463Z,203.87
2022-11-23T03:40:25.496Z,229.23
2022-11-23T03:42:53.513Z,805.80
2022-11-23T03:45:21.530Z,388.93
2022-11-23T03:47:49.507Z,254.57
2022-11-23T03:50:18.935Z,650.60
2022-11-23T03:52:49.227Z,665.67
2022-11-23T03:55:17.532Z,108.83
2022-11-23T03:57:45.670Z,54.87
2022-11-23T04:00:15.150Z,490.97
2022-11-23T04:02:43.169Z,381.73
2022-11-23T04:05:11.485Z,1115.07
2022-11-23T04:07:40.969Z,668.93
2022-11-23T04:10:10.390Z,172.13
2022-11-23T04:12:38.377Z,450.83
2022-11-23T04:15:07.248Z,790.20
2022-11-23T04:17:35.249Z,1999.90
2022-11-23T04:20:03.294Z,1334.87
2022-11-23T04:22:31.403Z,245.13
2022-11-23T04:25:00.805Z,422.50
2022-11-23T04:27:28.855Z,168.27
2022-11-23T04:29:56.852Z,1259.83
2022-11-23T04:32:24.891Z,104.60
2022-11-23T04:34:52.905Z,73.57
2022-11-23T04:37:20.928Z,205.97
2022-11-23T04:39:48.954Z,772.10
2022-11-23T04:42:18.336Z,133.23
2022-11-23T04:44:46.992Z,287.60
2022-11-23T04:47:15.130Z,876.40
2022-11-23T04:49:43.112Z,150.53
2022-11-23T04:52:11.200Z,1680.93
2022-11-23T04:54:39.233Z,1405.13
2022-11-23T04:57:07.275Z,597.40
2022-11-23T04:59:36.793Z,609.27
2022-11-23T05:02:04.922Z,1567.17
2022-11-23T05:04:34.318Z,1999.90
2022-11-23T05:07:02.395Z,1374.43
2022-11-23T05:09:30.984Z,1190.30
2022-11-23T05:11:59.420Z,318.87
2022-11-23T05:14:27.414Z,505.67
2022-11-23T05:16:56.804Z,559.87
2022-11-23T05:19:24.793Z,1999.90
2022-11-23T05:21:52.825Z,932.13
2022-11-23T05:24:20.984Z,972.90
2022-11-23T05:26:52.047Z,1020.60
2022-11-23T05:29:24.018Z,1999.90
2022-11-23T05:31:52.193Z,1999.90
2022-11-23T05:34:21.625Z,1999.90
2022-11-23T05:36:49.713Z,1801.70
2022-11-23T05:39:17.764Z,1020.07
2022-11-23T05:41:45.792Z,743.87
2022-11-23T05:44:13.890Z,1640.63
2022-11-23T05:46:41.991Z,175.40
2022-11-23T05:49:11.005Z,574.57
2022-11-23T05:51:40.431Z,911.33
2022-11-23T05:54:08.489Z,1244.30
2022-11-23T05:56:40.185Z,487.93
2022-11-23T05:59:08.712Z,972.97
2022-11-23T06:01:36.772Z,1999.90
2022-11-23T06:04:06.831Z,1999.90
2022-11-23T06:06:35.025Z,198.57
2022-11-23T06:09:04.733Z,709.33
2022-11-23T06:11:32.751Z,518.97
2022-11-23T06:14:00.798Z,1007.23
2022-11-23T06:16:29.019Z,511.93
2022-11-23T06:18:57.067Z,922.73
2022-11-23T06:21:25.089Z,1825.17
2022-11-23T06:23:53.210Z,415.00
2022-11-23T06:26:22.572Z,1019.93
2022-11-23T06:28:50.707Z,1249.43
2022-11-23T06:31:19.000Z,491.80
2022-11-23T06:33:47.022Z,1271.60
2022-11-23T06:36:15.825Z,1214.60
2022-11-23T06:38:43.838Z,728.27
2022-11-23T06:41:12.021Z,1468.07
2022-11-23T06:43:41.593Z,494.60
2022-11-23T06:46:10.149Z,1745.80
2022-11-23T06:48:38.185Z,1337.83
2022-11-23T06:51:06.377Z,667.80
2022-11-23T06:53:34.426Z,1999.90
2022-11-23T06:56:02.650Z,1102.23
2022-11-23T06:58:30.889Z,393.53
2022-11-23T07:01:03.560Z,1768.73
2022-11-23T07:03:31.962Z,761.80
2022-11-23T07:06:00.357Z,564.30
2022-11-23T07:08:28.892Z,1025.27
2022-11-23T07:11:01.418Z,590.57
2022-11-23T07:13:29.511Z,133.13
2022-11-23T07:15:59.653Z,323.37
2022-11-23T07:18:29.057Z,300.67
2022-11-23T07:20:59.435Z,124.10
2022-11-23T07:23:27.693Z,1233.87
2022-11-23T07:25:55.711Z,920.50
2022-11-23T07:28:23.854Z,558.97
2022-11-23T07:30:52.882Z,707.67
2022-11-23T07:33:20.925Z,1245.83
2022-11-23T07:35:50.352Z,207.20
2022-11-23T07:38:18.573Z,1129.53
2022-11-23T07:40:50.673Z,309.43
2022-11-23T07:43:18.817Z,382.30
2022-11-23T07:45:46.939Z,888.13
2022-11-23T07:48:15.045Z,413.53
2022-11-23T07:50:43.055Z,289.20
2022-11-23T07:53:12.619Z,454.73
2022-11-23T07:55:40.594Z,585.07
2022-11-23T07:58:08.614Z,105.80
2022-11-23T08:00:36.702Z,684.67
2022-11-23T08:03:26.648Z,1729.90
2022-11-23T08:05:53.418Z,981.17
2022-11-23T08:08:23.007Z,411.83
2022-11-23T08:10:53.943Z,743.23
2022-11-23T08:13:22.878Z,791.90
2022-11-23T08:15:55.266Z,684.53
2022-11-23T08:18:24.619Z,373.60
2022-11-23T08:20:52.784Z,1478.03
2022-11-23T08:23:22.790Z,1999.90
2022-11-23T08:25:50.879Z,785.90
2022-11-23T08:28:19.195Z,467.00
2022-11-23T08:30:47.798Z,859.53
2022-11-23T08:33:16.421Z,1063.83
2022-11-23T08:35:44.933Z,986.07
2022-11-23T08:38:14.233Z,716.70
2022-11-23T08:40:43.716Z,539.17
2022-11-23T08:43:11.834Z,929.60
2022-11-23T08:45:39.922Z,446.70
2022-11-23T08:48:08.913Z,212.70
2022-11-23T08:50:37.232Z,378.07
2022-11-23T08:53:05.685Z,562.77
2022-11-23T08:55:33.728Z,598.83
2022-11-23T08:58:03.269Z,1391.80
2022-11-23T09:00:31.450Z,551.40
2022-11-23T09:03:00.102Z,740.27
2022-11-23T09:05:28.852Z,1132.53
2022-11-23T09:07:57.300Z,1999.90
2022-11-23T09:10:25.314Z,1432.03
2022-11-23T09:12:53.373Z,1834.93
2022-11-23T09:15:23.072Z,920.77
2022-11-23T09:17:51.294Z,573.30
2022-11-23T09:20:19.523Z,1343.07
2022-11-23T09:22:53.203Z,1752.57
2022-11-23T09:25:22.172Z,538.57
2022-11-23T09:27:50.930Z,718.50
2022-11-23T09:30:19.291Z,1999.90
2022-11-23T09:32:48.902Z,1417.00
2022-11-23T09:35:17.078Z,1998.17
2022-11-23T09:37:45.174Z,1999.90
2022-11-23T09:40:17.721Z,1999.90
2022-11-23T09:43:06.763Z,1999.90
2022-11-23T09:45:41.633Z,1606.30
2022-11-23T09:48:30.040Z,1999.90
2022-11-23T09:51:02.473Z,1867.40
2022-11-23T09:53:35.909Z,1999.90
2022-11-23T09:56:04.110Z,1525.83
2022-11-23T09:58:37.641Z,1999.90
2022-11-23T10:01:08.638Z,1999.90
2022-11-23T10:03:45.368Z,1258.90
2022-11-23T10:06:20.950Z,1999.90
2022-11-23T10:08:59.568Z,1948.97
2022-11-23T10:11:42.126Z,1999.90
2022-11-23T10:14:24.933Z,621.63
2022-11-23T10:17:00.244Z,1788.97
2022-11-23T10:19:40.645Z,1999.90
2022-11-23T10:22:17.557Z,1492.17
2022-11-23T10:24:50.223Z,1577.80
2022-11-23T10:27:20.766Z,1999.90
2022-11-23T10:29:50.128Z,1999.90
2022-11-23T10:32:27.455Z,741.67
2022-11-23T10:35:05.224Z,1768.47
2022-11-23T10:37:34.370Z,1728.77
2022-11-23T10:40:02.579Z,1999.90
2022-11-23T10:42:35.018Z,1159.53
2022-11-23T10:45:04.648Z,1766.47
2022-11-23T10:47:39.837Z,1999.90
2022-11-23T10:50:26.108Z,1908.67
2022-11-23T10:52:56.924Z,1999.90
2022-11-23T10:55:31.401Z,1700.23
2022-11-23T10:57:59.924Z,1999.90
2022-11-23T11:00:31.287Z,1999.90
2022-11-23T11:03:03.261Z,1897.93
2022-11-23T11:08:26.555Z,1999.90
2022-11-23T11:11:00.603Z,1999.90
2022-11-23T11:13:31.784Z,906.27
2022-11-23T11:16:02.306Z,1999.90
2022-11-23T11:18:33.497Z,1999.90
2022-11-23T11:21:05.754Z,1775.67
2022-11-23T11:23:35.828Z,748.17
2022-11-23T11:26:07.147Z,1766.10
2022-11-23T11:28:38.515Z,794.37
2022-11-23T11:31:24.403Z,481.90
2022-11-23T11:33:58.052Z,1999.90
2022-11-23T11:36:31.325Z,1999.90
2022-11-23T11:39:19.732Z,1999.90
2022-11-23T11:41:50.329Z,1332.07
2022-11-23T11:44:22.024Z,1999.90
2022-11-23T11:46:55.573Z,540.00
2022-11-23T11:49:27.870Z,1999.90
2022-11-23T11:52:05.427Z,1999.90
2022-11-23T11:54:42.288Z,1193.73
2022-11-23T11:57:21.064Z,1999.90
2022-11-23T11:59:52.867Z,1999.90
2022-11-23T12:02:24.912Z,1999.90
2022-11-23T12:05:04.169Z,1412.97
2022-11-23T12:07:37.395Z,1399.80
2022-11-23T12:10:14.072Z,1247.13
2022-11-23T12:12:42.790Z,1492.30
2022-11-23T12:15:47.861Z,1999.90
2022-11-23T12:18:47.903Z,1999.90
2022-11-23T12:21:48.021Z,1999.90
2022-11-23T12:24:27.341Z,1813.57
2022-11-23T12:27:05.814Z,1999.90
2022-11-23T12:29:45.646Z,1999.90
2022-11-23T12:32:24.666Z,1999.90
2022-11-23T12:35:13.885Z,1999.90
2022-11-23T12:37:55.441Z,1999.90
2022-11-23T12:40:47.917Z,1896.37
2022-11-23T12:43:23.499Z,636.90
2022-11-23T12:46:20.740Z,1999.90
2022-11-23T12:49:02.317Z,1255.37
2022-11-23T12:51:40.935Z,1245.73
2022-11-23T12:54:22.416Z,1999.90
2022-11-23T12:57:11.198Z,801.73
2022-11-23T12:59:44.952Z,1703.60
2022-11-23T13:02:36.798Z,1922.33
2022-11-23T13:05:41.618Z,1504.50
2022-11-23T13:08:47.142Z,1156.87
2022-11-23T13:11:26.355Z,1999.90
2022-11-23T13:14:08.890Z,1577.33
2022-11-23T13:17:06.910Z,1013.33
2022-11-23T13:19:58.340Z,1397.40
2022-11-23T13:22:28.594Z,1931.10
2022-11-23T13:25:16.278Z,950.30
2022-11-23T13:27:46.693Z,1800.27
2022-11-23T13:30:45.625Z,1999.90
2022-11-23T13:33:37.847Z,1106.73
2022-11-23T13:36:11.527Z,1999.90
2022-11-23T13:38:43.555Z,1989.17
2022-11-23T13:41:44.532Z,1999.90
2022-11-23T13:44:14.012Z,615.67
2022-11-23T13:46:43.459Z,1999.90
2022-11-23T13:49:31.497Z,1237.93
2022-11-23T13:52:26.377Z,234.60
2022-11-23T13:54:56.990Z,1999.90
2022-11-23T13:57:25.453Z,1784.90
2022-11-23T13:59:53.579Z,992.03
2022-11-23T14:02:27.981Z,706.63
2022-11-23T14:05:29.212Z,173.83
2022-11-23T14:07:57.873Z,866.63
2022-11-23T14:10:26.570Z,337.93
2022-11-23T14:12:58.732Z,503.90
2022-11-23T14:15:30.025Z,1031.57
2022-11-23T14:18:31.415Z,1298.03
2022-11-23T14:21:08.898Z,443.40
2022-11-23T14:24:19.062Z,639.33
2022-11-23T14:27:38.929Z,917.90
2022-11-23T14:30:18.069Z,145.17
2022-11-23T14:33:03.884Z,185.27
2022-11-23T14:35:42.047Z,105.83
2022-11-23T14:38:44.479Z,74.73
2022-11-23T14:41:18.125Z,338.37
2022-11-23T14:43:48.189Z,298.97
2022-11-23T14:46:19.327Z,120.70
2022-11-23T14:48:48.138Z,103.40
2022-11-23T14:51:20.011Z,78.77
2022-11-23T14:53:51.303Z,55.83
2022-11-23T14:56:31.431Z,79.87
2022-11-23T14:59:04.094Z,59.70
2022-11-23T15:01:32.678Z,54.50
2022-11-23T15:04:07.627Z,28.77
2022-11-23T15:06:45.491Z,49.07
2022-11-23T15:09:23.636Z,113.60
2022-11-23T15:11:51.681Z,206.40
2022-11-23T15:14:22.254Z,242.70
2022-11-23T15:16:50.303Z,38.23
2022-11-23T15:19:20.073Z,74.33
2022-11-23T15:21:49.510Z,81.60
2022-11-23T15:24:26.031Z,319.53
2022-11-23T15:26:54.583Z,41.53
2022-11-23T15:29:37.279Z,92.43
2022-11-23T15:32:32.839Z,100.27
2022-11-23T15:35:04.492Z,43.20
2022-11-23T15:37:38.780Z,35.63
2022-11-23T15:40:13.433Z,53.67
2022-11-23T15:42:41.922Z,46.93
2022-11-23T15:45:34.292Z,72.43
2022-11-23T15:48:03.367Z,35.33
2022-11-23T15:50:34.235Z,38.70
2022-11-23T15:53:04.014Z,54.40
2022-11-23T15:55:32.206Z,40.87
2022-11-23T15:58:10.510Z,49.43
2022-11-23T16:00:38.734Z,48.80
2022-11-23T16:03:28.305Z,48.87
2022-11-23T16:06:15.634Z,73.77
2022-11-23T16:08:45.406Z,68.13
2022-11-23T16:11:32.483Z,53.20
2022-11-23T16:14:15.201Z,49.63
2022-11-23T16:16:46.340Z,37.23
2022-11-23T16:19:27.889Z,33.53
2022-11-23T16:22:02.620Z,56.80
2022-11-23T16:24:34.403Z,46.00
2022-11-23T16:27:03.244Z,58.13
2022-11-23T16:29:36.767Z,55.20
2022-11-23T16:32:07.325Z,58.23
2022-11-23T16:34:35.734Z,41.13
2022-11-23T16:37:04.883Z,49.93
2022-11-23T16:39:35.021Z,50.87
2022-11-23T16:42:03.019Z,48.33
2022-11-23T16:44:35.211Z,40.10
2022-11-23T16:47:24.897Z,54.33
2022-11-23T16:49:53.522Z,130.33
2022-11-23T16:52:22.744Z,57.30
2022-11-23T16:54:53.614Z,64.13
2022-11-23T16:57:28.795Z,66.13
2022-11-23T16:59:57.176Z,98.60
2022-11-23T17:02:25.260Z,41.30
2022-11-23T17:04:53.377Z,32.47
2022-11-23T17:07:21.499Z,63.87
2022-11-23T17:09:50.954Z,56.07
2022-11-23T17:12:20.588Z,67.77
2022-11-23T17:14:50.510Z,95.63
2022-11-23T17:17:22.045Z,98.63
2022-11-23T17:19:51.145Z,59.20
2022-11-23T17:22:20.499Z,84.60
2022-11-23T17:24:49.654Z,100.07
2022-11-23T17:27:22.891Z,44.03
2022-11-23T17:29:56.214Z,50.67
2022-11-23T17:32:24.373Z,56.73
2022-11-23T17:34:52.463Z,79.37
2022-11-23T17:37:23.354Z,77.00
2022-11-23T17:39:52.026Z,73.10
2022-11-23T17:42:21.753Z,66.23
2022-11-23T17:44:49.782Z,99.87
2022-11-23T17:47:25.103Z,93.07
2022-11-23T17:49:53.175Z,96.77
2022-11-23T17:52:21.419Z,121.63
2022-11-23T17:54:49.524Z,77.77
2022-11-23T17:57:20.084Z,58.67
2022-11-23T17:59:49.466Z,54.47
2022-11-23T18:02:19.280Z,82.80
2022-11-23T18:04:47.487Z,138.40
2022-11-23T18:07:16.988Z,47.60
2022-11-23T18:09:45.041Z,38.13
2022-11-23T18:12:13.111Z,96.20
2022-11-23T18:14:41.266Z,40.97
2022-11-23T18:17:10.702Z,60.90
2022-11-23T18:19:38.688Z,78.30
2022-11-23T18:22:06.677Z,25.57
2022-11-23T18:24:34.714Z,71.63
2022-11-23T18:27:02.740Z,71.63
2022-11-23T18:29:31.214Z,50.67
2022-11-23T18:31:59.565Z,66.13
2022-11-23T18:34:29.123Z,25.60
2022-11-23T18:36:57.257Z,281.03
2022-11-23T18:39:25.291Z,408.67
2022-11-23T18:41:53.295Z,301.83
2022-11-23T18:44:21.427Z,193.23
2022-11-23T18:46:49.629Z,74.93
2022-11-23T18:49:17.702Z,98.03
2022-11-23T18:51:47.079Z,460.13
2022-11-23T18:54:15.083Z,90.37
2022-11-23T18:56:43.094Z,98.50
2022-11-23T18:59:28.788Z,115.30
2022-11-23T19:01:59.219Z,81.73
2022-11-23T19:04:27.474Z,75.37
2022-11-23T19:06:57.407Z,81.43
2022-11-23T19:09:25.538Z,88.07
2022-11-23T19:11:53.536Z,81.60
2022-11-23T19:14:21.627Z,59.60
2022-11-23T19:16:49.670Z,59.37
2022-11-23T19:19:18.583Z,61.30
2022-11-23T19:21:47.022Z,85.77
2022-11-23T19:24:16.564Z,148.10
2022-11-23T19:26:44.560Z,89.83
2022-11-23T19:29:13.733Z,51.67
2022-11-23T19:31:41.879Z,46.60
2022-11-23T19:34:10.851Z,77.67
2022-11-23T19:36:40.648Z,103.43
2022-11-23T19:39:09.998Z,94.27
2022-11-23T19:41:39.375Z,67.17
2022-11-23T19:44:07.979Z,430.93
2022-11-23T19:46:36.048Z,104.23
2022-11-23T19:49:04.750Z,113.73
2022-11-23T19:51:32.770Z,199.70
2022-11-23T19:54:01.702Z,438.67
2022-11-23T19:56:30.406Z,144.97
2022-11-23T19:59:01.924Z,500.63
2022-11-23T20:01:32.517Z,168.63
2022-11-23T20:04:08.717Z,84.70
2022-11-23T20:06:38.674Z,196.63
2022-11-23T20:09:09.819Z,161.63
2022-11-23T20:11:39.625Z,208.97
2022-11-23T20:14:11.077Z,47.50
2022-11-23T20:16:39.538Z,52.30
2022-11-23T20:19:09.263Z,206.57
2022-11-23T20:21:38.141Z,535.43
2022-11-23T20:24:08.471Z,114.87
2022-11-23T20:26:37.226Z,146.30
2022-11-23T20:29:06.614Z,156.70
2022-11-23T20:31:37.221Z,130.10
2022-11-23T20:34:07.798Z,53.93
2022-11-23T20:36:38.466Z,386.83
2022-11-23T20:39:10.877Z,76.07
2022-11-23T20:41:39.742Z,171.53
2022-11-23T20:44:12.363Z,54.17
2022-11-23T20:49:31.075Z,95.87
2022-11-23T20:51:59.156Z,446.00
2022-11-23T20:54:27.241Z,160.30
2022-11-23T20:56:55.270Z,68.50
2022-11-23T20:59:23.948Z,56.70
2022-11-23T21:01:53.577Z,53.03
2022-11-23T21:04:21.671Z,168.00
2022-11-23T21:06:49.673Z,55.00
2022-11-23T21:09:18.120Z,58.37
2022-11-23T21:12:03.790Z,101.47
2022-11-23T21:14:32.922Z,82.87
2022-11-23T21:17:02.710Z,61.43
2022-11-23T21:19:32.694Z,177.77
2022-11-23T21:22:05.187Z,73.50
2022-11-23T21:24:35.090Z,67.03
2022-11-23T21:27:03.870Z,75.60
2022-11-23T21:29:32.246Z,24.70
2022-11-23T21:32:01.385Z,163.00
2022-11-23T21:34:32.053Z,38.03
2022-11-23T21:37:00.719Z,98.50
2022-11-23T21:39:30.955Z,112.93
2022-11-23T21:41:59.001Z,142.20
2022-11-23T21:44:27.105Z,80.23
2022-11-23T21:46:55.404Z,30.10
2022-11-23T21:49:23.694Z,39.00
2022-11-23T21:51:53.056Z,88.57
2022-11-23T21:54:21.264Z,43.70
2022-11-23T21:56:49.525Z,112.87
2022-11-23T21:59:17.543Z,78.00
2022-11-23T22:01:45.576Z,191.17
2022-11-23T22:04:15.620Z,42.90
2022-11-23T22:06:45.414Z,40.00
2022-11-23T22:09:15.194Z,77.93
2022-11-23T22:11:44.657Z,64.70
2022-11-23T22:14:14.668Z,36.40
2022-11-23T22:16:44.451Z,28.30
2022-11-23T22:19:13.760Z,43.20
2022-11-23T22:21:42.957Z,220.33
2022-11-23T22:24:14.857Z,146.93
2022-11-23T22:26:43.398Z,110.20
2022-11-23T22:29:11.853Z,211.43
2022-11-23T22:31:40.101Z,123.03
2022-11-23T22:34:11.246Z,109.27
2022-11-23T22:36:39.501Z,48.60
2022-11-23T22:39:08.703Z,119.80
2022-11-23T22:41:38.708Z,132.40
2022-11-23T22:44:09.796Z,145.03
2022-11-23T22:46:39.411Z,110.70
2022-11-23T22:49:07.621Z,105.13
2022-11-23T22:51:35.712Z,322.33
2022-11-23T22:54:03.708Z,99.77
2022-11-23T22:56:32.276Z,48.77
2022-11-23T22:59:02.274Z,66.93
2022-11-23T23:01:31.958Z,92.60
2022-11-23T23:04:02.380Z,357.13
2022-11-23T23:06:34.671Z,65.77
2022-11-23T23:09:03.645Z,197.83
2022-11-23T23:11:33.220Z,55.47
2022-11-23T23:14:02.721Z,305.80
2022-11-23T23:16:30.991Z,78.23
2022-11-23T23:18:59.702Z,106.00
2022-11-23T23:21:29.769Z,75.10
2022-11-23T23:24:00.053Z,644.43
2022-11-23T23:26:29.328Z,187.93
2022-11-23T23:28:58.537Z,136.83
2022-11-23T23:31:29.877Z,480.27
2022-11-23T23:33:58.132Z,302.40
2022-11-23T23:36:26.408Z,356.17
2022-11-23T23:38:54.693Z,78.90
2022-11-23T23:41:22.865Z,369.93
2022-11-23T23:43:50.950Z,54.97
2022-11-23T23:46:19.439Z,260.33
2022-11-23T23:48:49.014Z,53.07
2022-11-23T23:51:18.825Z,128.37
2022-11-23T23:53:48.421Z,105.13
2022-11-23T23:56:18.803Z,192.07
2022-11-23T23:58:46.947Z,158.87
